Portada
METAR-TAF:

METAR-TAF

Aeroports :

Maracaibo, Veneçuela

latitud: 10-34N, longitud: 071-44W, altitud: 66 m

Observació

L'informe es va fer fa 3 hores i 9 minuts, a les 09:02 UTC
Vent 2 kt del Nord-Oest
Temperatura 25°C
Humitat 94%
Pressió 1008 hPa

METAR: SVMC 240902Z AUTO 31002KT NCD 25/24 Q1008

Hora: 08:11 (12:11 UTC)

Pronòstic

L'informe es va fer fa 2 hores i 11 minuts, a les 10:00 UTC
Pronòstic vàlid del 24 a les 12 UTC al 25 a les 12 UTC
Vent kt del Nord
Visibilitat 10 km o més
Cel ennuvolat a una alçada de 1300 ft
Temporalment
l' 24 a les 12 UTC al 24 a les 14 UTC
Vent 5 kt del Sud/Sud-Est
Visibilitat: 9000 m
Cel ennuvolat a una alçada de 1300 ft
plugim

TAF: SVMC 241000Z 2412/2512 00000KT 9999 BKN013 TX35/2419Z TN24/2408Z TEMPO 2412/2414 16005KT 9000 DZ BKN013

Observacions i pronòstics meteorològics de més de 4000 aeroports (METAR i TAF).

Les estacions disponibles són els punts grocs i vermells al mapa.

Posi el ratolí al punt desitjat per veure el nom de l'estació.

Feu clic per veure les observacions i els pronòstics meteorològics.

Per canviar el mapa: feu clic els botons verds amb una creu de color negre per apropar; al botó verd amb un guió per allunyar la imatge; o en les fletxes verdes per a mapes adjacents.


METAR-TAF: